Latest Weather Observations for Cooma Airport

IDN60901

Issued at 9:51 am EST Wednesday 15 July 2020 (issued every 10 minutes, with the page automatically refreshed every 10 minutes)

About weather observations | Map of Canberra area stations | Latest observations for Canberra area | Other Formats
Station Details ID: 070217 Name: COOMA AIRPORT AWS Lat: -36.29 Lon: 148.97 Height: 930.0 m
Data from the previous 72 hours. | See also: Recent months at Cooma Airport
Date/Time
EST
Temp
°C
App
Temp
°C
Dew
Point
°C
Rel
Hum
%
Delta-T
°C
Wind Press
QNH
hPa
Press
MSL
hPa
Rain since
9am
mm
Dir  Spd
km/h
Gust
km/h
Spd
kts
Gust
kts
15/09:30am 4.1 -3.3 4.1 100 0.0 SSW 32 37 17 20 1021.8 1023.5 0.0
15/09:03am 3.9 -3.1 3.9 100 0.0 SW 30 37 16 20 1021.7 1023.4 0.0
15/09:00am 3.8 -3.3 3.8 100 0.0 SW 30 37 16 20 1021.7 1023.4 1.6
15/08:44am 3.7 -2.2 3.7 100 0.0 SW 24 30 13 16 1021.8 1023.5 1.6
15/08:30am 3.5 -2.5 3.5 100 0.0 SW 24 30 13 16 1021.9 1023.6 1.6
15/08:04am 3.3 -3.5 3.3 100 0.0 SW 28 35 15 19 1021.8 1023.5 1.6
15/08:00am 3.3 -3.8 3.3 100 0.0 SW 30 35 16 19 1021.7 1023.4 1.6
15/07:45am 3.3 -3.8 3.3 100 0.0 SW 30 37 16 20 1021.7 1023.4 1.6
15/07:30am 3.2 -3.2 3.2 100 0.0 SW 26 33 14 18 1021.7 1023.4 1.6
15/07:00am 3.1 -4.1 3.1 100 0.0 SW 30 39 16 21 1021.8 1023.5 1.6
15/06:30am 3.1 -3.3 3.1 100 0.0 SW 26 35 14 19 1021.8 1023.5 1.6
15/06:08am 3.1 -3.3 3.1 100 0.0 SW 26 32 14 17 1021.7 1023.4 1.6
15/06:00am 3.1 -3.7 3.1 100 0.0 SW 28 33 15 18 1021.6 1023.3 1.6
15/05:31am 3.2 -4.3 3.2 100 0.0 SSW 32 41 17 22 1021.3 1023.0 1.4
15/05:30am 3.1 -4.5 3.1 100 0.0 SSW 32 41 17 22 1021.3 1023.0 1.4
15/05:00am 3.2 -4.4 3.1 99 0.0 SSW 32 41 17 22 1021.1 1022.8 1.4
15/04:30am 3.1 -5.4 3.1 100 0.0 SSW 37 44 20 24 1021.1 1022.8 1.4
15/04:29am 3.0 -5.5 3.0 100 0.0 SSW 37 44 20 24 1021.1 1022.8 1.4
15/04:23am 3.1 -5.0 3.1 100 0.0 SSW 35 44 19 24 1021.1 1022.8 1.4
15/04:12am 3.3 -4.8 3.3 100 0.0 SW 35 44 19 24 1021.3 1023.0 1.4
15/04:00am 3.5 -4.0 3.5 100 0.0 SSW 32 41 17 22 1021.4 1023.1 1.4
15/03:49am 3.7 -3.0 3.7 100 0.0 SSW 28 37 15 20 1021.5 1023.2 1.4
15/03:43am 3.8 -3.3 3.8 100 0.0 SSW 30 37 16 20 1021.5 1023.2 1.4
15/03:30am 3.7 -3.4 3.7 100 0.0 SSW 30 35 16 19 1021.7 1023.4 1.4
15/03:18am 3.7 -3.8 3.7 100 0.0 S 32 39 17 21 1021.8 1023.5 1.4
15/03:11am 3.7 -3.4 3.7 100 0.0 S 30 39 16 21 1021.8 1023.5 1.4
15/03:00am 3.9 -3.1 3.9 100 0.0 SSW 30 35 16 19 1021.9 1023.6 1.4
15/02:30am 4.2 -1.6 4.2 100 0.0 SSW 24 33 13 18 1022.2 1024.0 1.4
15/02:00am 4.2 -1.6 4.2 100 0.0 SW 24 30 13 16 1022.3 1024.1 1.4
15/01:30am 4.2 -1.6 4.2 100 0.0 SSW 24 33 13 18 1022.3 1024.1 1.2
15/01:28am 4.2 -1.6 4.2 100 0.0 SSW 24 30 13 16 1022.3 1024.1 1.2
15/01:09am 4.2 -2.8 4.2 100 0.0 SSW 30 35 16 19 1022.2 1024.0 1.2
15/01:00am 4.2 -2.8 4.2 100 0.0 SSW 30 37 16 20 1022.2 1024.0 1.2
15/12:37am 4.3 -2.3 4.3 100 0.0 SW 28 35 15 19 1022.6 1024.3 1.2
15/12:30am 4.3 -2.3 4.3 100 0.0 SW 28 37 15 20 1022.6 1024.3 1.2
15/12:24am 4.3 -1.9 4.3 100 0.0 SW 26 33 14 18 1022.6 1024.3 1.2
15/12:00am 4.3 -1.9 4.3 100 0.0 SW 26 32 14 17 1022.8 1024.5 1.2
 
Date/Time
EST
Temp
°C
App
Temp
°C
Dew
Point
°C
Rel
Hum
%
Delta-T
°C
Wind Press
QNH
hPa
Press
MSL
hPa
Rain since
9am
mm
Dir  Spd
km/h
Gust
km/h
Spd
kts
Gust
kts
14/11:35pm 4.4 -2.5 4.4 100 0.0 SW 30 37 16 20 1023.0 1024.7 1.2
14/11:30pm 4.4 -2.9 4.4 100 0.0 SW 32 37 17 20 1023.0 1024.7 1.2
14/11:00pm 4.3 -2.7 4.3 100 0.0 SW 30 35 16 19 1023.3 1025.1 1.2
14/10:48pm 4.4 -2.5 4.4 100 0.0 SW 30 35 16 19 1023.4 1025.2 1.2
14/10:30pm 4.4 -2.2 4.4 100 0.0 SW 28 35 15 19 1023.7 1025.4 1.2
14/10:15pm 4.5 -1.7 4.5 100 0.0 SW 26 32 14 17 1023.6 1025.3 1.2
14/10:00pm 4.5 -1.7 4.5 100 0.0 SW 26 32 14 17 1023.6 1025.3 1.2
14/09:30pm 4.6 -1.5 4.6 100 0.0 SW 26 32 14 17 1023.8 1025.5 1.2
14/09:00pm 4.6 -1.5 4.6 100 0.0 SW 26 33 14 18 1023.9 1025.6 1.2
14/08:30pm 4.6 -1.5 4.6 100 0.0 SW 26 32 14 17 1024.0 1025.8 1.2
14/08:00pm 4.9 -0.8 4.9 100 0.0 SW 24 30 13 16 1024.1 1025.9 1.2
14/07:30pm 4.9 -0.8 4.9 100 0.0 SSW 24 30 13 16 1024.0 1025.8 1.2
14/07:12pm 4.9 -0.8 4.9 100 0.0 SW 24 30 13 16 1024.1 1025.9 1.2
14/07:00pm 4.9 -1.2 4.9 100 0.0 SSW 26 33 14 18 1024.0 1025.8 1.2
14/06:37pm 5.0 -1.4 5.0 100 0.0 SSW 28 35 15 19 1023.8 1025.5 1.2
14/06:30pm 4.9 -1.6 4.9 100 0.0 SSW 28 32 15 17 1023.9 1025.6 1.2
14/06:27pm 4.9 -1.6 4.9 100 0.0 SSW 28 32 15 17 1023.8 1025.5 1.2
14/06:14pm 4.8 -0.9 4.8 100 0.0 SSW 24 30 13 16 1023.8 1025.5 1.2
14/06:00pm 4.9 -1.6 4.9 100 0.0 SSW 28 35 15 19 1023.7 1025.4 1.0
14/05:51pm 5.0 -1.8 5.0 100 0.0 S 30 37 16 20 1023.4 1025.2 1.0
14/05:36pm 5.3 -1.1 5.3 100 0.0 S 28 39 15 21 1023.3 1025.1 1.0
14/05:30pm 5.6 -0.3 5.6 100 0.0 S 26 32 14 17 1023.3 1025.1 1.0
14/05:26pm 5.6 -0.3 5.6 100 0.0 S 26 32 14 17 1023.3 1025.1 1.0
14/05:20pm 5.4 -0.6 5.4 100 0.0 S 26 30 14 16 1023.4 1025.2 1.0
14/05:06pm 5.6 -0.3 5.6 100 0.0 SSW 26 32 14 17 1023.3 1025.1 0.8
14/05:03pm 5.7 0.5 5.7 100 0.0 SSW 22 30 12 16 1023.3 1025.1 0.8
14/05:00pm 5.9 0.8 5.9 100 0.0 SSW 22 26 12 14 1023.3 1025.1 0.6
14/04:30pm 6.3 0.1 6.2 99 0.0 S 28 32 15 17 1023.0 1024.7 0.6
14/04:13pm 6.4 -0.7 6.3 99 0.0 SSW 33 41 18 22 1022.8 1024.5 0.6
14/04:01pm 6.4 -1.9 6.3 99 0.0 SSW 39 44 21 24 1022.6 1024.3 0.6
14/04:00pm 6.4 -1.9 6.3 99 0.0 SSW 39 44 21 24 1022.5 1024.2 0.6
14/03:30pm 7.0 -1.8 5.6 91 0.7 S 41 50 22 27 1022.1 1023.9 0.6
14/03:00pm 7.2 -1.2 5.8 91 0.7 S 39 48 21 26 1022.2 1024.0 0.6
14/02:42pm 7.6 -0.1 7.2 97 0.2 S 37 48 20 26 1022.2 1024.0 0.6
14/02:30pm 7.2 -0.9 7.1 99 0.0 SSW 39 48 21 26 1022.1 1023.9 0.6
14/02:17pm 7.7 0.9 7.6 99 0.0 S 33 43 18 23 1022.1 1023.9 0.6
14/02:07pm 7.1 -0.2 7.1 100 0.0 S 35 43 19 23 1022.2 1024.0 0.6
14/02:06pm 7.1 -0.2 7.1 100 0.0 S 35 43 19 23 1022.2 1024.0 0.6
14/02:00pm 7.2 0.3 7.2 100 0.0 S 33 46 18 25 1022.3 1024.1 0.6
14/01:30pm 7.0 -0.7 7.0 100 0.0 SSW 37 46 20 25 1022.1 1023.9 0.4
14/01:00pm 6.7 -0.3 6.7 100 0.0 SSW 33 44 18 24 1022.2 1024.0 0.4
14/12:38pm 6.8 -0.2 6.8 100 0.0 SSW 33 41 18 22 1022.5 1024.2 0.4
14/12:32pm 7.2 -0.5 7.2 100 0.0 SSW 37 46 20 25 1022.6 1024.3 0.4
14/12:30pm 6.9 -0.5 6.9 100 0.0 SSW 35 46 19 25 1022.6 1024.3 0.4
14/12:00pm 6.3 -0.8 6.3 100 0.0 SSW 33 39 18 21 1023.0 1024.7 0.4
14/11:30am 6.1 -0.9 6.1 100 0.0 SSW 32 39 17 21 1023.3 1025.1 0.4
14/11:00am 5.7 -1.0 5.7 100 0.0 SW 30 37 16 20 1023.8 1025.5 0.2
14/10:30am 5.3 -1.8 5.3 100 0.0 SSW 32 37 17 20 1024.3 1026.1 0.2
14/10:00am 5.0 -1.1 5.0 100 0.0 SW 26 35 14 19 1024.4 1026.2 0.2
14/09:30am 4.6 -2.7 4.6 100 0.0 SSW 32 39 17 21 1024.5 1026.3 0.2
14/09:00am 4.6 -1.5 4.6 100 0.0 SSW 26 37 14 20 1024.3 1026.1 17.0
14/08:30am 4.6 -1.5 4.6 100 0.0 SSW 26 33 14 18 1024.2 1026.0 17.0
14/08:23am 4.6 -1.2 4.6 100 0.0 SSW 24 33 13 18 1024.2 1026.0 17.0
14/08:00am 4.5 -1.3 4.5 100 0.0 SSW 24 32 13 17 1024.1 1025.9 17.0
14/07:30am 4.2 -2.4 4.2 100 0.0 SSW 28 35 15 19 1023.8 1025.5 17.0
14/07:26am 4.2 -1.6 4.2 100 0.0 SSW 24 30 13 16 1023.7 1025.4 17.0
14/07:09am 4.1 -1.8 4.1 100 0.0 SSW 24 30 13 16 1023.7 1025.4 17.0
14/07:00am 4.1 -1.8 4.1 100 0.0 SSW 24 32 13 17 1023.7 1025.4 17.0
14/06:56am 4.1 -1.8 4.1 100 0.0 SSW 24 32 13 17 1023.6 1025.3 17.0
14/06:54am 4.2 -1.6 4.2 100 0.0 SSW 24 32 13 17 1023.6 1025.3 17.0
14/06:30am 4.4 -2.5 4.4 100 0.0 S 30 37 16 20 1023.3 1025.1 17.0
14/06:00am 4.5 -2.4 4.5 100 0.0 S 30 39 16 21 1022.8 1024.5 17.0
14/05:42am 4.6 -2.7 4.6 100 0.0 S 32 41 17 22 1022.7 1024.4 17.0
14/05:30am 4.8 -3.0 4.8 100 0.0 S 35 48 19 26 1022.6 1024.3 17.0
14/05:00am 5.2 -0.8 5.2 100 0.0 S 26 39 14 21 1022.2 1024.0 16.6
14/04:30am 5.0 -0.3 5.0 100 0.0 SSW 22 30 12 16 1022.0 1023.7 16.6
14/04:00am 5.1 -0.6 5.1 100 0.0 SSW 24 32 13 17 1021.8 1023.5 16.4
14/03:30am 4.9 0.0 4.9 100 0.0 SSW 20 26 11 14 1021.8 1023.5 15.8
14/03:00am 4.8 -0.9 4.8 100 0.0 SSW 24 32 13 17 1021.7 1023.4 15.6
14/02:30am 4.6 -0.2 4.6 100 0.0 SSW 19 24 10 13 1021.7 1023.4 15.4
14/02:00am 3.9 -0.3 3.9 100 0.0 SW 15 19 8 10 1021.8 1023.5 15.2
14/01:30am 3.5 0.0 3.5 100 0.0 SSW 11 13 6 7 1022.0 1023.7 15.2
14/01:00am 3.4 -0.9 3.4 100 0.0 SW 15 17 8 9 1022.0 1023.7 15.0
14/12:30am 2.9 -1.1 2.9 100 0.0 SSW 13 15 7 8 1022.2 1024.0 14.8
14/12:00am 2.7 -0.9 2.7 100 0.0 SSW 11 13 6 7 1022.5 1024.2 14.8
 
Date/Time
EST
Temp
°C
App
Temp
°C
Dew
Point
°C
Rel
Hum
%
Delta-T
°C
Wind Press
QNH
hPa
Press
MSL
hPa
Rain since
9am
mm
Dir  Spd
km/h
Gust
km/h
Spd
kts
Gust
kts
13/11:30pm 2.6 -1.4 2.6 100 0.0 SSW 13 13 7 7 1022.7 1024.4 14.8
13/11:00pm 2.5 -1.9 2.5 100 0.0 SSW 15 17 8 9 1022.6 1024.3 14.6
13/10:30pm 2.4 -1.7 2.4 100 0.0 SSW 13 17 7 9 1022.8 1024.5 14.6
13/10:00pm 2.1 -2.4 2.1 100 0.0 SSW 15 17 8 9 1022.8 1024.5 14.6
13/09:30pm 2.0 -2.5 2.0 100 0.0 SW 15 19 8 10 1022.7 1024.4 14.6
13/09:25pm 2.0 -2.9 2.0 100 0.0 SSW 17 19 9 10 1022.7 1024.4 14.6
13/09:00pm 2.1 -2.8 2.1 100 0.0 SSW 17 20 9 11 1022.9 1024.6 14.2
13/08:30pm 2.0 -3.3 2.0 100 0.0 SW 19 20 10 11 1022.8 1024.5 13.6
13/08:00pm 1.8 -3.5 1.8 100 0.0 SW 19 22 10 12 1022.6 1024.3 13.0
13/07:30pm 1.6 -3.7 1.6 100 0.0 SW 19 22 10 12 1022.5 1024.2 12.4
13/07:00pm 1.4 -4.2 1.4 100 0.0 SW 20 28 11 15 1022.5 1024.2 11.6
13/06:59pm 1.4 -4.2 1.4 100 0.0 SW 20 28 11 15 1022.5 1024.2 11.6
13/06:30pm 1.2 -6.3 1.2 100 0.0 SW 30 35 16 19 1021.8 1023.5 11.2
13/06:00pm 1.0 -4.6 1.0 100 0.0 SW 20 24 11 13 1022.0 1023.7 10.8
13/05:54pm 1.0 -4.6 1.0 100 0.0 SSW 20 24 11 13 1021.9 1023.6 10.8
13/05:30pm 1.0 -4.6 1.0 100 0.0 SW 20 24 11 13 1021.3 1023.0 10.4
13/05:23pm 0.9 -4.7 0.9 100 0.0 SW 20 28 11 15 1021.3 1023.0 10.4
13/05:00pm 0.9 -5.9 0.9 100 0.0 SW 26 30 14 16 1020.8 1022.5 10.4
13/04:52pm 0.8 -5.6 0.8 100 0.0 SW 24 28 13 15 1020.8 1022.5 10.4
13/04:30pm 0.8 -5.6 0.8 100 0.0 SW 24 30 13 16 1020.5 1022.2 10.4
13/04:00pm 0.8 -7.1 0.8 100 0.0 SW 32 37 17 20 1020.2 1021.8 10.4
13/03:59pm 0.7 -7.3 0.7 100 0.0 SW 32 37 17 20 1020.2 1021.8 10.4
13/03:48pm 1.0 -7.5 1.0 100 0.0 SW 35 41 19 22 1019.9 1021.6 10.2
13/03:40pm 1.4 -7.4 1.4 100 0.0 SW 37 43 20 23 1019.8 1021.5 10.0
13/03:30pm 1.8 -6.9 1.8 100 0.0 SW 37 44 20 24 1019.6 1021.3 9.8
13/03:10pm 2.3 -3.9 2.3 100 0.0 SW 24 30 13 16 1020.2 1021.8 8.2
13/03:00pm 2.5 -3.6 2.5 100 0.0 SW 24 28 13 15 1020.3 1021.9 7.6
13/02:30pm 2.8 -2.5 2.8 100 0.0 SW 20 28 11 15 1019.8 1021.5 5.4
13/02:00pm 3.2 -2.8 3.2 100 0.0 SSW 24 30 13 16 1019.4 1021.1 3.8
13/01:46pm 3.6 -2.4 3.5 99 0.0 SSW 24 30 13 16 1019.3 1020.9 3.4
13/01:31pm 4.0 -1.1 3.9 99 0.0 S 20 26 11 14 1019.2 1020.8 3.4
13/01:30pm 4.1 -1.0 4.0 99 0.0 S 20 24 11 13 1019.2 1020.8 3.4
13/01:18pm 4.7 1.4 4.6 99 0.0 SSE 11 17 6 9 1019.3 1020.9 3.0
13/01:14pm 4.7 1.0 4.6 99 0.0 SSE 13 20 7 11 1019.3 1020.9 2.8
13/01:00pm 4.7 -0.1 4.6 99 0.0 S 19 26 10 14 1019.3 1020.9 1.8
13/12:30pm 5.1 -1.0 5.0 99 0.0 S 26 33 14 18 1019.0 1020.6 0.8
13/12:18pm 5.3 -0.3 5.2 99 0.0 S 24 32 13 17 1019.0 1020.6 0.8
13/12:00pm 5.4 -0.2 5.3 99 0.0 S 24 32 13 17 1019.1 1020.7 0.8
13/11:40am 5.6 -0.4 5.5 99 0.0 S 26 32 14 17 1019.0 1020.6 0.6
13/11:30am 5.7 0.1 5.6 99 0.0 S 24 32 13 17 1019.1 1020.7 0.6
13/11:00am 5.8 0.7 5.8 100 0.0 S 22 28 12 15 1019.4 1021.1 0.6
13/10:44am 5.8 -0.9 5.7 99 0.0 SSE 30 37 16 20 1019.4 1021.1 0.6
13/10:30am 6.3 0.1 6.2 99 0.0 S 28 35 15 19 1019.5 1021.2 0.6
13/10:16am 6.2 0.4 6.2 100 0.0 S 26 33 14 18 1019.4 1021.1 0.4
13/10:03am 6.0 0.5 6.0 100 0.0 S 24 30 13 16 1019.4 1021.1 0.4
13/10:00am 6.1 0.6 6.1 100 0.0 S 24 30 13 16 1019.4 1021.1 0.4
13/09:30am 4.6 -0.4 4.6 100 0.0 SW 20 26 11 14 1019.4 1021.1 0.4
13/09:19am 4.1 -2.1 4.1 100 0.0 SW 26 32 14 17 1019.3 1020.9 0.0
13/09:04am 3.7 -3.0 3.7 100 0.0 SW 28 32 15 17 1019.1 1020.7 0.0
13/09:00am 3.5 -2.8 3.5 100 0.0 SW 26 32 14 17 1019.2 1020.8 25.4
13/08:30am 3.2 -2.8 3.2 100 0.0 SW 24 32 13 17 1019.2 1020.8 25.4
13/08:26am 3.2 -2.8 3.2 100 0.0 SW 24 35 13 19 1019.2 1020.8 25.4
13/08:00am 2.8 -3.7 2.8 100 0.0 SSW 26 30 14 16 1019.3 1020.9 23.2
13/07:59am 2.9 -3.6 2.9 100 0.0 SSW 26 33 14 18 1019.3 1020.9 23.2
13/07:30am 3.5 -3.2 3.5 100 0.0 S 28 39 15 21 1019.1 1020.7 21.6
13/07:00am 3.3 -3.1 3.3 100 0.0 SSW 26 30 14 16 1018.7 1020.4 21.0
13/06:44am 3.3 -2.7 3.3 100 0.0 SSW 24 30 13 16 1018.7 1020.4 20.6
13/06:36am 3.3 -2.7 3.3 100 0.0 SSW 24 32 13 17 1018.7 1020.4 20.6
13/06:30am 3.3 -3.1 3.3 100 0.0 SSW 26 32 14 17 1018.7 1020.4 20.6
13/06:00am 3.7 -2.2 3.7 100 0.0 SW 24 32 13 17 1018.2 1019.8 20.4
13/05:30am 3.6 -2.4 3.6 100 0.0 SW 24 28 13 15 1018.3 1019.9 20.2
13/05:23am 3.5 -2.5 3.5 100 0.0 SSW 24 28 13 15 1018.3 1019.9 20.2
13/05:00am 3.5 -2.1 3.5 100 0.0 SSW 22 28 12 15 1018.3 1019.9 20.0
13/04:51am 3.5 -1.7 3.5 100 0.0 SSW 20 26 11 14 1018.3 1019.9 19.8
13/04:36am 3.4 -1.6 3.4 100 0.0 SSW 19 22 10 12 1018.3 1019.9 19.0
13/04:30am 3.4 -1.6 3.4 100 0.0 SSW 19 22 10 12 1018.2 1019.8 18.8
13/04:00am 3.4 -1.3 3.4 100 0.0 SW 17 20 9 11 1018.1 1019.7 18.4
13/03:30am 3.2 -1.9 3.2 100 0.0 SW 19 26 10 14 1017.9 1019.5 18.2
13/03:00am 2.8 -1.2 2.8 100 0.0 WSW 13 17 7 9 1018.2 1019.8 18.0
13/02:30am 2.7 -1.7 2.7 100 0.0 SW 15 17 8 9 1018.1 1019.7 18.0
13/02:00am 2.5 -2.3 2.4 99 0.0 SW 17 20 9 11 1018.0 1019.6 18.0
13/01:37am 2.5 -1.9 2.5 100 0.0 SW 15 17 8 9 1018.3 1019.9 18.0
13/01:30am 2.5 -1.2 2.5 100 0.0 SW 11 15 6 8 1018.3 1019.9 18.0
13/01:00am 2.2 -1.5 2.1 99 0.0 SSW 11 13 6 7 1018.2 1019.8 18.0
13/12:42am 2.1 -2.0 2.0 99 0.0 S 13 17 7 9 1018.3 1019.9 17.8
13/12:33am 2.1 -3.2 2.0 99 0.0 SSE 19 24 10 13 1018.3 1019.9 17.4
13/12:31am 2.1 -3.4 2.0 99 0.0 SSE 20 26 11 14 1018.3 1019.9 17.4
13/12:30am 2.2 -3.3 2.1 99 0.0 SSE 20 26 11 14 1018.3 1019.9 17.4
13/12:20am 2.6 -3.5 2.5 99 0.0 SSE 24 30 13 16 1018.3 1019.9 16.6
13/12:00am 3.4 -1.3 3.3 99 0.0 S 17 26 9 14 1018.2 1019.8 15.4
 
Date/Time
EST
Temp
°C
App
Temp
°C
Dew
Point
°C
Rel
Hum
%
Delta-T
°C
Wind Press
QNH
hPa
Press
MSL
hPa
Rain since
9am
mm
Dir  Spd
km/h
Gust
km/h
Spd
kts
Gust
kts
12/11:48pm 3.5 0.4 3.5 100 0.0 WSW 9 11 5 6 1018.2 1019.8 14.2
12/11:46pm 3.5 0.8 3.5 100 0.0 WSW 7 11 4 6 1018.2 1019.8 14.0
12/11:30pm 3.4 0.2 3.3 99 0.0 WSW 9 9 5 5 1018.2 1019.8 13.2
12/11:00pm 3.5 0.0 3.4 99 0.0 S 11 20 6 11 1018.4 1020.0 11.2
12/10:45pm 3.5 0.0 3.4 99 0.0 SSE 11 17 6 9 1018.5 1020.2 10.4
12/10:30pm 3.6 -0.3 3.5 99 0.0 SE 13 20 7 11 1018.6 1020.3 9.2
12/10:26pm 3.6 -0.3 3.5 99 0.0 SSE 13 20 7 11 1018.5 1020.2 9.0
12/10:00pm 4.2 0.4 4.1 99 0.0 SSE 13 19 7 10 1018.4 1020.0 7.4
12/09:56pm 4.3 0.6 4.2 99 0.0 SSE 13 19 7 10 1018.4 1020.0 7.2
12/09:53pm 4.3 0.6 4.2 99 0.0 SSE 13 19 7 10 1018.4 1020.0 7.0
12/09:30pm 4.4 -0.7 4.3 99 0.0 SSE 20 24 11 13 1018.3 1019.9 6.0
12/09:25pm 4.4 -0.7 4.3 99 0.0 SE 20 32 11 17 1018.3 1019.9 5.8
12/09:10pm 4.5 -0.9 4.5 100 0.0 SSE 22 32 12 17 1018.2 1019.8 5.2
12/09:00pm 5.1 1.5 5.1 100 0.0 S 13 17 7 9 1018.0 1019.6 4.8
12/08:33pm 5.0 1.4 5.0 100 0.0 SW 13 17 7 9 1017.8 1019.4 4.4
12/08:30pm 5.0 1.4 5.0 100 0.0 SW 13 17 7 9 1017.8 1019.4 4.4
12/08:11pm 5.0 1.4 5.0 100 0.0 SW 13 17 7 9 1017.5 1019.1 3.8
12/08:00pm 5.0 1.8 5.0 100 0.0 SW 11 15 6 8 1017.8 1019.4 3.6
12/07:36pm 5.1 1.5 5.1 100 0.0 SW 13 13 7 7 1017.6 1019.3 3.2
12/07:30pm 5.1 1.5 5.1 100 0.0 SW 13 13 7 7 1017.6 1019.3 3.0
12/07:00pm 5.2 2.4 5.2 100 0.0 S 9 11 5 6 1017.6 1019.3 2.6
12/06:34pm 5.1 4.0 5.1 100 0.0 CALM 0 4 0 2 1017.5 1019.1 2.6
12/06:30pm 5.1 4.0 5.1 100 0.0 CALM 0 4 0 2 1017.4 1019.0 2.6
12/06:00pm 5.2 3.3 5.1 99 0.0 WNW 4 6 2 3 1017.1 1018.7 2.6
12/05:30pm 5.3 3.8 5.2 99 0.0 NNW 2 6 1 3 1016.8 1018.4 2.4
12/05:00pm 5.5 2.8 5.4 99 0.0 NE 9 11 5 6 1016.4 1018.0 2.4
12/04:59pm 5.6 2.9 5.5 99 0.0 NE 9 11 5 6 1016.4 1018.0 2.4
12/04:30pm 5.9 1.7 5.8 99 0.0 NE 17 24 9 13 1016.4 1018.0 1.6
12/04:26pm 6.0 2.2 5.9 99 0.0 NE 15 19 8 10 1016.3 1017.9 1.6
12/04:08pm 6.1 2.7 6.0 99 0.0 E 13 19 7 10 1016.2 1017.8 1.4
12/04:04pm 6.0 2.6 5.7 98 0.1 E 13 20 7 11 1016.2 1017.8 1.4
12/04:00pm 6.0 2.2 5.7 98 0.1 E 15 20 8 11 1016.1 1017.7 1.4
12/03:50pm 6.2 1.7 6.1 99 0.0 ENE 19 24 10 13 1016.1 1017.7 1.0
12/03:33pm 6.4 3.1 6.3 99 0.0 ESE 13 19 7 10 1015.9 1017.5 0.6
12/03:30pm 6.4 3.5 6.3 99 0.0 ESE 11 19 6 10 1015.8 1017.4 0.6
12/03:00pm 6.1 3.1 6.0 99 0.0 SW 11 13 6 7 1015.6 1017.1 0.2
12/02:53pm 6.1 3.1 6.0 99 0.0 SSW 11 13 6 7 1015.6 1017.1 0.2
12/02:30pm 5.7 2.6 5.6 99 0.0 SW 11 15 6 8 1015.7 1017.2 0.2
12/02:16pm 5.7 2.2 5.6 99 0.0 SSW 13 17 7 9 1015.5 1017.0 0.2
12/02:00pm 6.0 2.2 5.9 99 0.0 SW 15 17 8 9 1015.5 1017.0 0.2
12/01:30pm 5.7 1.9 5.6 99 0.0 SSW 15 17 8 9 1015.6 1017.1 0.2
12/01:27pm 5.8 2.4 5.7 99 0.0 SSW 13 17 7 9 1015.5 1017.0 0.2
12/01:00pm 5.3 2.1 5.2 99 0.0 SW 11 15 6 8 1015.9 1017.5 0.2
12/12:30pm 5.1 2.3 5.0 99 0.0 SW 9 13 5 7 1016.0 1017.6 0.2
12/12:00pm 4.8 1.9 4.7 99 0.0 SW 9 13 5 7 1016.3 1017.9 0.0
12/11:30am 4.3 0.9 4.2 99 0.0 SSW 11 13 6 7 1016.7 1018.3 0.0
12/11:13am 4.3 0.9 4.2 99 0.0 SSW 11 13 6 7 1016.9 1018.5 0.0
12/11:00am 4.2 0.4 4.1 99 0.0 SSW 13 13 7 7 1017.0 1018.6 0.0
12/10:30am 4.2 0.4 3.8 97 0.2 SW 13 15 7 8 1017.1 1018.7 0.0
12/10:00am 4.1 1.4 3.8 98 0.1 SW 7 9 4 5 1017.0 1018.6 0.0
12/09:58am 4.2 1.6 4.1 99 0.0 SW 7 9 4 5 1017.0 1018.6 0.0

Latest Capital City Observations: Canberra | Sydney | Melbourne | Brisbane | Adelaide | Perth | Hobart | Darwin

Other formats

Comma delimited format used in spreadsheet applications
http://www.bom.gov.au/fwo/IDN60903/IDN60903.94921.axf

JavaScript Object Notation format (JSON) in row-major order
http://www.bom.gov.au/fwo/IDN60903/IDN60903.94921.json

Data quality

Most of these data are generated automatically and are frequently updated. Quality checks on data are not normally performed. It is possible for incorrect values to appear. Refer to information at About Latest Weather Observations and please check the disclaimer before using these data.